Time,TemperatureF,DewpointF,PressureIn,WindDirection,WindDirectionDegrees,WindSpeedMPH,WindSpeedGustMPH,Humidity,HourlyPrecipIn,Conditions,Clouds,dailyrainin,SoftwareType,DateUTC
2013-01-18 00:02:00,37.0,36.0,30.58,North,11,0.0,0.0,98,0.00,,,0.03,,2013-01-18 06:02:00,
2013-01-18 00:12:00,37.0,36.0,30.58,North,11,0.0,0.0,98,0.00,,,0.03,,2013-01-18 06:12:00,
2013-01-18 00:22:00,36.0,35.0,30.58,North,11,0.0,0.0,98,0.00,,,0.03,,2013-01-18 06:22:00,
2013-01-18 00:32:00,36.0,35.0,30.58,North,11,0.0,0.0,98,0.00,,,0.03,,2013-01-18 06:32:00,
2013-01-18 00:43:00,36.0,35.0,30.58,North,11,0.0,0.0,98,0.00,,,0.03,,2013-01-18 06:43:00,
2013-01-18 00:52:00,35.0,34.0,30.59,North,11,0.0,0.0,98,0.00,,,0.03,,2013-01-18 06:52:00,
2013-01-18 01:02:00,35.0,34.0,30.59,North,11,0.0,0.0,98,0.00,,,0.03,,2013-01-18 07:02:00,
2013-01-18 01:12:00,35.0,34.0,30.59,North,11,0.0,0.0,98,0.00,,,0.03,,2013-01-18 07:12:00,
2013-01-18 01:22:00,35.0,34.0,30.60,North,11,0.0,0.0,98,0.00,,,0.03,,2013-01-18 07:22:00,
2013-01-18 01:32:00,35.0,34.0,30.60,North,11,0.0,0.0,98,0.00,,,0.03,,2013-01-18 07:32:00,
2013-01-18 01:42:00,35.0,34.0,30.60,North,11,0.0,0.0,98,0.00,,,0.03,,2013-01-18 07:42:00,
2013-01-18 01:52:00,35.0,34.0,30.60,North,11,0.0,0.0,98,0.00,,,0.03,,2013-01-18 07:52:00,
2013-01-18 02:02:00,35.0,35.0,30.60,North,11,0.0,0.0,99,0.01,,,0.04,,2013-01-18 08:02:00,
2013-01-18 02:12:00,35.0,35.0,30.60,North,11,0.0,0.0,99,0.01,,,0.04,,2013-01-18 08:12:00,
2013-01-18 02:22:00,35.0,35.0,30.61,North,11,0.0,0.0,99,0.01,,,0.04,,2013-01-18 08:22:00,
2013-01-18 02:32:00,35.0,35.0,30.61,North,11,0.0,0.0,99,0.01,,,0.04,,2013-01-18 08:32:00,
2013-01-18 02:42:00,35.0,35.0,30.61,North,11,0.0,0.0,99,0.01,,,0.04,,2013-01-18 08:42:00,
2013-01-18 02:52:00,35.0,35.0,30.61,North,11,0.0,0.0,99,0.01,,,0.04,,2013-01-18 08:52:00,
2013-01-18 03:02:00,35.0,35.0,30.61,North,11,0.0,0.0,99,0.00,,,0.04,,2013-01-18 09:02:00,
2013-01-18 03:12:00,35.0,35.0,30.61,North,11,0.0,0.0,99,0.00,,,0.04,,2013-01-18 09:12:00,
2013-01-18 03:22:00,35.0,35.0,30.61,North,11,0.0,0.0,99,0.00,,,0.04,,2013-01-18 09:22:00,
2013-01-18 03:32:00,35.0,35.0,30.62,North,11,0.0,0.0,99,0.00,,,0.04,,2013-01-18 09:32:00,
2013-01-18 03:42:00,35.0,35.0,30.62,North,11,0.0,0.0,99,0.00,,,0.04,,2013-01-18 09:42:00,
2013-01-18 03:52:00,34.0,34.0,30.62,North,11,0.0,0.0,99,0.00,,,0.04,,2013-01-18 09:52:00,
2013-01-18 04:02:00,34.0,34.0,30.62,North,11,0.0,0.0,99,0.00,,,0.04,,2013-01-18 10:02:00,
2013-01-18 04:12:00,34.0,34.0,30.62,North,11,0.0,0.0,99,0.00,,,0.04,,2013-01-18 10:12:00,
2013-01-18 04:22:00,34.0,34.0,30.62,North,11,0.0,0.0,99,0.00,,,0.04,,2013-01-18 10:22:00,
2013-01-18 04:32:00,34.0,34.0,30.62,North,11,0.0,0.0,99,0.00,,,0.04,,2013-01-18 10:32:00,
2013-01-18 04:42:00,34.0,34.0,30.62,North,11,0.0,0.0,99,0.00,,,0.04,,2013-01-18 10:42:00,
2013-01-18 04:52:00,34.0,34.0,30.62,North,11,0.0,0.0,99,0.00,,,0.04,,2013-01-18 10:52:00,
2013-01-18 05:02:00,35.0,35.0,30.62,North,11,0.0,0.0,99,0.00,,,0.03,,2013-01-18 11:02:00,
2013-01-18 05:12:00,35.0,35.0,30.62,North,11,0.0,0.0,99,0.00,,,0.03,,2013-01-18 11:12:00,
2013-01-18 05:22:00,35.0,35.0,30.63,North,11,0.0,0.0,99,0.00,,,0.03,,2013-01-18 11:22:00,
2013-01-18 05:32:00,34.0,34.0,30.63,North,11,0.0,0.0,99,0.00,,,0.03,,2013-01-18 11:32:00,
2013-01-18 05:42:00,34.0,34.0,30.63,North,11,0.0,0.0,99,0.00,,,0.03,,2013-01-18 11:42:00,
2013-01-18 05:52:00,34.0,34.0,30.63,North,11,0.0,0.0,99,0.00,,,0.03,,2013-01-18 11:52:00,
2013-01-18 06:02:00,33.0,33.0,30.63,North,11,0.0,0.0,99,0.00,,,0.03,,2013-01-18 12:02:00,
2013-01-18 06:12:00,33.0,33.0,30.63,North,11,0.0,0.0,99,0.00,,,0.03,,2013-01-18 12:12:00,
2013-01-18 06:22:00,33.0,33.0,30.64,NE,41,0.0,1.0,100,0.00,,,0.03,,2013-01-18 12:22:00,
2013-01-18 06:32:00,35.0,35.0,30.64,NE,54,0.0,0.0,100,0.00,,,0.03,,2013-01-18 12:32:00,
2013-01-18 06:42:00,35.0,35.0,30.64,NE,54,0.0,0.0,100,0.00,,,0.03,,2013-01-18 12:42:00,
2013-01-18 06:52:00,37.0,37.0,30.64,East,80,0.0,5.0,99,0.00,,,0.03,,2013-01-18 12:52:00,
2013-01-18 07:03:00,37.0,37.0,30.64,NE,56,0.0,3.0,99,0.00,,,0.03,,2013-01-18 13:03:00,
2013-01-18 07:12:00,37.0,37.0,30.64,NE,56,0.0,3.0,99,0.00,,,0.03,,2013-01-18 13:12:00,
2013-01-18 07:22:00,38.0,37.0,30.64,ENE,69,2.0,7.0,97,0.00,,,0.03,,2013-01-18 13:22:00,
2013-01-18 07:33:00,39.0,38.0,30.64,NNE,24,1.0,5.0,97,0.00,,,0.03,,2013-01-18 13:33:00,
2013-01-18 07:43:00,39.0,38.0,30.64,NNE,24,1.0,5.0,97,0.00,,,0.03,,2013-01-18 13:43:00,
2013-01-18 07:53:00,39.0,38.0,30.65,NNW,347,2.0,7.0,96,0.00,,,0.03,,2013-01-18 13:53:00,
2013-01-18 08:03:00,40.0,39.0,30.65,ENE,76,1.0,6.0,95,0.00,,,0.03,,2013-01-18 14:03:00,
2013-01-18 08:12:00,40.0,39.0,30.65,ENE,76,1.0,6.0,95,0.00,,,0.03,,2013-01-18 14:12:00,
2013-01-18 08:22:00,41.0,39.0,30.65,East,94,2.0,6.0,94,0.00,,,0.03,,2013-01-18 14:22:00,
2013-01-18 08:33:00,41.0,39.0,30.64,East,87,4.0,10.0,92,0.00,,,0.03,,2013-01-18 14:33:00,
2013-01-18 08:42:00,41.0,39.0,30.64,East,87,4.0,10.0,92,0.00,,,0.03,,2013-01-18 14:42:00,
2013-01-18 08:53:00,42.0,40.0,30.63,ENE,66,5.0,10.0,92,0.00,,,0.03,,2013-01-18 14:53:00,
2013-01-18 09:03:00,43.0,40.0,30.63,East,92,5.0,8.0,90,0.00,,,0.03,,2013-01-18 15:03:00,
2013-01-18 09:12:00,43.0,40.0,30.63,East,92,5.0,8.0,90,0.00,,,0.03,,2013-01-18 15:12:00,
2013-01-18 09:23:00,44.0,41.0,30.63,East,85,3.0,8.0,89,0.00,,,0.03,,2013-01-18 15:23:00,
2013-01-18 09:33:00,45.0,40.0,30.62,ESE,104,7.0,12.0,84,0.00,,,0.03,,2013-01-18 15:33:00,
2013-01-18 09:43:00,45.0,40.0,30.62,ESE,104,7.0,12.0,84,0.00,,,0.03,,2013-01-18 15:43:00,
2013-01-18 09:53:00,46.0,42.0,30.62,ESE,106,3.0,12.0,85,0.00,,,0.03,,2013-01-18 15:53:00,
2013-01-18 10:03:00,47.0,41.0,30.61,ESE,110,6.0,10.0,78,0.00,,,0.03,,2013-01-18 16:03:00,
2013-01-18 10:12:00,47.0,41.0,30.61,ESE,110,6.0,10.0,78,0.00,,,0.03,,2013-01-18 16:12:00,
2013-01-18 10:23:00,48.0,40.0,30.60,ESE,108,5.0,12.0,75,0.00,,,0.03,,2013-01-18 16:23:00,
2013-01-18 10:33:00,50.0,41.0,30.60,East,97,4.0,10.0,70,0.00,,,0.03,,2013-01-18 16:33:00,
2013-01-18 10:42:00,50.0,41.0,30.60,East,97,4.0,10.0,70,0.00,,,0.03,,2013-01-18 16:42:00,
2013-01-18 10:52:00,50.0,39.0,30.59,ENE,57,5.0,8.0,67,0.00,,,0.03,,2013-01-18 16:52:00,
2013-01-18 11:03:00,52.0,42.0,30.58,NNE,23,0.0,6.0,68,0.00,,,0.03,,2013-01-18 17:03:00,
2013-01-18 11:13:00,52.0,42.0,30.58,NNE,23,0.0,6.0,68,0.00,,,0.03,,2013-01-18 17:13:00,
2013-01-18 11:23:00,53.0,40.0,30.57,ENE,76,3.0,9.0,62,0.00,,,0.03,,2013-01-18 17:23:00,
2013-01-18 11:33:00,54.0,40.0,30.55,East,90,1.0,7.0,59,0.00,,,0.03,,2013-01-18 17:33:00,
2013-01-18 11:42:00,54.0,40.0,30.55,East,90,1.0,7.0,59,0.00,,,0.03,,2013-01-18 17:42:00,
2013-01-18 11:53:00,55.0,40.0,30.55,ESE,120,1.0,6.0,56,0.00,,,0.03,,2013-01-18 17:53:00,
2013-01-18 12:03:00,56.0,39.0,30.52,NNE,33,3.0,9.0,52,0.00,,,0.03,,2013-01-18 18:03:00,
2013-01-18 12:12:00,56.0,39.0,30.52,NNE,33,3.0,9.0,52,0.00,,,0.03,,2013-01-18 18:12:00,
2013-01-18 12:23:00,56.0,37.0,30.51,NNE,24,2.0,9.0,49,0.00,,,0.03,,2013-01-18 18:23:00,
2013-01-18 12:33:00,57.0,39.0,30.49,NE,49,0.0,8.0,50,0.01,,,0.04,,2013-01-18 18:33:00,
2013-01-18 12:43:00,57.0,39.0,30.49,NE,49,0.0,8.0,50,0.01,,,0.04,,2013-01-18 18:43:00,
2013-01-18 12:52:00,57.0,37.0,30.49,East,90,1.0,7.0,47,0.01,,,0.04,,2013-01-18 18:52:00,
2013-01-18 13:03:00,58.0,41.0,30.48,North,10,2.0,7.0,53,0.01,,,0.04,,2013-01-18 19:03:00,
2013-01-18 13:12:00,58.0,41.0,30.48,North,10,2.0,7.0,53,0.01,,,0.04,,2013-01-18 19:12:00,
2013-01-18 13:22:00,57.0,41.0,30.47,NNW,346,1.0,7.0,54,0.01,,,0.04,,2013-01-18 19:22:00,
2013-01-18 13:33:00,59.0,41.0,30.46,NE,48,3.0,7.0,51,0.00,,,0.04,,2013-01-18 19:33:00,
2013-01-18 13:42:00,59.0,41.0,30.46,NE,48,3.0,7.0,51,0.00,,,0.04,,2013-01-18 19:42:00,
2013-01-18 13:52:00,59.0,40.0,30.46,East,87,2.0,6.0,49,0.00,,,0.04,,2013-01-18 19:52:00,
2013-01-18 14:03:00,60.0,41.0,30.44,NNE,25,0.0,8.0,49,0.00,,,0.04,,2013-01-18 20:03:00,
2013-01-18 14:12:00,60.0,41.0,30.44,NNE,25,0.0,8.0,49,0.00,,,0.04,,2013-01-18 20:12:00,
2013-01-18 14:23:00,60.0,39.0,30.44,NNE,20,3.0,7.0,46,0.00,,,0.03,,2013-01-18 20:23:00,
2013-01-18 14:33:00,60.0,39.0,30.43,NE,43,2.0,6.0,46,0.00,,,0.03,,2013-01-18 20:33:00,
2013-01-18 14:42:00,60.0,39.0,30.43,NE,43,2.0,6.0,46,0.00,,,0.03,,2013-01-18 20:42:00,
2013-01-18 14:52:00,60.0,37.0,30.43,East,79,2.0,7.0,43,0.00,,,0.03,,2013-01-18 20:52:00,
2013-01-18 15:03:00,60.0,39.0,30.42,ESE,103,2.0,7.0,45,0.01,,,0.04,,2013-01-18 21:03:00,
2013-01-18 15:12:00,60.0,39.0,30.42,ESE,103,2.0,7.0,45,0.01,,,0.04,,2013-01-18 21:12:00,
2013-01-18 15:22:00,60.0,40.0,30.42,ENE,73,3.0,8.0,47,0.01,,,0.04,,2013-01-18 21:22:00,
2013-01-18 15:33:00,60.0,39.0,30.42,NNE,19,3.0,7.0,45,0.01,,,0.04,,2013-01-18 21:33:00,
2013-01-18 15:42:00,60.0,39.0,30.42,NNE,19,3.0,7.0,45,0.01,,,0.04,,2013-01-18 21:42:00,
2013-01-18 15:52:00,60.0,39.0,30.42,NNE,29,1.0,8.0,46,0.01,,,0.04,,2013-01-18 21:52:00,
2013-01-18 16:03:00,59.0,39.0,30.42,NNE,32,2.0,7.0,47,0.00,,,0.04,,2013-01-18 22:03:00,
2013-01-18 16:12:00,59.0,39.0,30.42,NNE,32,2.0,7.0,47,0.00,,,0.04,,2013-01-18 22:12:00,
2013-01-18 16:22:00,59.0,39.0,30.41,North,0,1.0,5.0,47,0.01,,,0.05,,2013-01-18 22:22:00,
2013-01-18 16:32:00,58.0,38.0,30.41,NNE,24,0.0,6.0,48,0.01,,,0.05,,2013-01-18 22:32:00,
2013-01-18 16:42:00,58.0,38.0,30.41,NNE,24,0.0,6.0,48,0.01,,,0.05,,2013-01-18 22:42:00,
2013-01-18 16:52:00,58.0,38.0,30.42,NNE,26,3.0,6.0,48,0.01,,,0.05,,2013-01-18 22:52:00,
2013-01-18 17:03:00,57.0,39.0,30.42,ENE,62,0.0,3.0,50,0.01,,,0.05,,2013-01-18 23:03:00,
2013-01-18 17:12:00,57.0,39.0,30.42,ENE,62,0.0,3.0,50,0.01,,,0.05,,2013-01-18 23:12:00,
2013-01-18 17:22:00,57.0,39.0,30.43,ENE,62,0.0,0.0,50,0.00,,,0.05,,2013-01-18 23:22:00,
2013-01-18 17:32:00,56.0,38.0,30.44,ENE,62,0.0,0.0,51,0.00,,,0.05,,2013-01-18 23:32:00,
2013-01-18 17:42:00,56.0,38.0,30.44,ENE,62,0.0,0.0,51,0.00,,,0.05,,2013-01-18 23:42:00,
2013-01-18 17:52:00,55.0,38.0,30.44,ENE,62,0.0,0.0,53,0.00,,,0.05,,2013-01-18 23:52:00,
2013-01-18 18:02:00,52.0,39.0,30.45,ENE,62,0.0,0.0,60,0.01,,,0.06,,2013-01-19 00:02:00,
2013-01-18 18:12:00,52.0,39.0,30.45,ENE,62,0.0,0.0,60,0.01,,,0.06,,2013-01-19 00:12:00,
2013-01-18 18:22:00,51.0,39.0,30.46,ENE,62,0.0,0.0,63,0.01,,,0.06,,2013-01-19 00:22:00,
2013-01-18 18:32:00,49.0,39.0,30.47,ENE,62,0.0,0.0,67,0.01,,,0.06,,2013-01-19 00:32:00,
2013-01-18 18:42:00,49.0,39.0,30.47,ENE,62,0.0,0.0,67,0.01,,,0.06,,2013-01-19 00:42:00,
2013-01-18 18:53:00,48.0,40.0,30.48,ENE,62,0.0,0.0,74,0.01,,,0.06,,2013-01-19 00:53:00,
2013-01-18 19:02:00,46.0,39.0,30.49,ENE,62,0.0,0.0,75,0.00,,,0.05,,2013-01-19 01:02:00,
2013-01-18 19:12:00,46.0,39.0,30.49,ENE,62,0.0,0.0,75,0.00,,,0.05,,2013-01-19 01:12:00,
2013-01-18 19:22:00,46.0,39.0,30.49,ENE,62,0.0,0.0,77,0.00,,,0.05,,2013-01-19 01:22:00,
2013-01-18 19:32:00,44.0,39.0,30.50,ENE,62,0.0,0.0,84,0.00,,,0.05,,2013-01-19 01:32:00,
2013-01-18 19:42:00,44.0,39.0,30.50,ENE,62,0.0,0.0,84,0.00,,,0.05,,2013-01-19 01:42:00,
2013-01-18 19:52:00,43.0,39.0,30.50,ENE,62,0.0,0.0,86,0.00,,,0.05,,2013-01-19 01:52:00,
2013-01-18 20:02:00,43.0,40.0,30.50,ENE,62,0.0,0.0,88,0.00,,,0.05,,2013-01-19 02:02:00,
2013-01-18 20:12:00,43.0,40.0,30.50,ENE,62,0.0,0.0,88,0.00,,,0.05,,2013-01-19 02:12:00,
2013-01-18 20:22:00,43.0,40.0,30.51,ENE,62,0.0,0.0,89,0.00,,,0.05,,2013-01-19 02:22:00,
2013-01-18 20:33:00,42.0,38.0,30.51,ENE,62,0.0,0.0,85,0.01,,,0.06,,2013-01-19 02:33:00,
2013-01-18 20:42:00,42.0,38.0,30.51,ENE,62,0.0,0.0,85,0.01,,,0.06,,2013-01-19 02:42:00,
2013-01-18 20:52:00,42.0,38.0,30.51,ENE,62,0.0,0.0,86,0.01,,,0.06,,2013-01-19 02:52:00,
2013-01-18 21:02:00,41.0,38.0,30.52,ENE,62,0.0,0.0,89,0.01,,,0.06,,2013-01-19 03:02:00,
2013-01-18 21:12:00,41.0,38.0,30.52,ENE,62,0.0,0.0,89,0.01,,,0.06,,2013-01-19 03:12:00,
2013-01-18 21:22:00,40.0,38.0,30.52,ENE,62,0.0,0.0,91,0.01,,,0.06,,2013-01-19 03:22:00,
2013-01-18 21:32:00,40.0,38.0,30.53,ENE,62,0.0,0.0,93,0.00,,,0.06,,2013-01-19 03:32:00,
2013-01-18 21:43:00,40.0,38.0,30.53,ENE,62,0.0,0.0,93,0.00,,,0.06,,2013-01-19 03:43:00,
2013-01-18 21:52:00,39.0,37.0,30.53,ENE,62,0.0,0.0,93,0.00,,,0.06,,2013-01-19 03:52:00,
2013-01-18 22:02:00,39.0,38.0,30.53,ENE,62,0.0,0.0,95,0.00,,,0.06,,2013-01-19 04:02:00,
2013-01-18 22:12:00,39.0,38.0,30.53,ENE,62,0.0,0.0,95,0.00,,,0.06,,2013-01-19 04:12:00,
2013-01-18 22:22:00,39.0,38.0,30.52,ENE,62,0.0,0.0,95,0.00,,,0.06,,2013-01-19 04:22:00,
2013-01-18 22:32:00,38.0,37.0,30.52,ENE,62,0.0,0.0,96,0.00,,,0.06,,2013-01-19 04:32:00,
2013-01-18 22:42:00,38.0,37.0,30.52,ENE,62,0.0,0.0,96,0.00,,,0.06,,2013-01-19 04:42:00,
2013-01-18 22:52:00,38.0,37.0,30.52,ENE,62,0.0,0.0,96,0.00,,,0.06,,2013-01-19 04:52:00,
2013-01-18 23:03:00,38.0,37.0,30.52,ENE,62,0.0,0.0,96,0.00,,,0.06,,2013-01-19 05:03:00,
2013-01-18 23:12:00,38.0,37.0,30.52,ENE,62,0.0,0.0,96,0.00,,,0.06,,2013-01-19 05:12:00,
2013-01-18 23:22:00,38.0,37.0,30.52,ENE,62,0.0,0.0,97,0.00,,,0.06,,2013-01-19 05:22:00,
2013-01-18 23:32:00,37.0,36.0,30.52,ENE,62,0.0,0.0,97,0.00,,,0.06,,2013-01-19 05:32:00,
2013-01-18 23:42:00,37.0,36.0,30.52,ENE,62,0.0,0.0,97,0.00,,,0.06,,2013-01-19 05:42:00,
2013-01-18 23:52:00,37.0,36.0,30.52,ENE,62,0.0,0.0,97,0.00,,,0.06,,2013-01-19 05:52:00,